Time;durP1;ratioP1;P1;durP2;ratioP2;P2;SDS_P1;SDS_P2;PMS_P1;PMS_P2;Temp;Humidity;BMP_temperature;BMP_pressure;BME280_temperature;BME280_humidity;BME280_pressure;Samples;Min_cycle;Max_cycle;Signal;HPM_P1;HPM_P2
2024/01/15 00:01:51;;;;;;;539.97;516.67;;;0.90;99.90;;;;;;5052994;28;20453;-65
2024/01/15 00:04:18;;;;;;;548.03;525.63;;;0.90;99.90;;;;;;5052851;28;20450;-64
2024/01/15 00:06:45;;;;;;;544.77;522.80;;;0.90;99.90;;;;;;5052287;28;20457;-65
2024/01/15 00:09:12;;;;;;;570.60;547.23;;;0.90;99.90;;;;;;5052744;28;20475;-64
2024/01/15 00:11:38;;;;;;;610.67;585.17;;;0.90;99.90;;;;;;5052612;28;20949;-64
2024/01/15 00:14:05;;;;;;;584.93;561.53;;;0.90;99.90;;;;;;5052276;28;20477;-64
2024/01/15 00:16:33;;;;;;;620.80;594.43;;;0.80;99.90;;;;;;5052570;28;20454;-64
2024/01/15 00:19:00;;;;;;;653.40;626.20;;;0.80;99.90;;;;;;5052357;28;20546;-64
2024/01/15 00:21:27;;;;;;;697.60;665.93;;;0.80;99.90;;;;;;5052166;28;20452;-64
2024/01/15 00:23:55;;;;;;;709.47;677.87;;;0.80;99.90;;;;;;5052610;28;20542;-64
2024/01/15 00:26:21;;;;;;;737.30;701.93;;;0.80;99.90;;;;;;5052297;28;20456;-63
2024/01/15 00:28:48;;;;;;;741.30;706.30;;;0.70;99.90;;;;;;5043944;28;20496;-63
2024/01/15 00:31:17;;;;;;;764.67;726.93;;;0.70;99.90;;;;;;5052235;28;20968;-63
2024/01/15 00:33:45;;;;;;;735.00;701.37;;;0.70;99.90;;;;;;5052064;28;20483;-63
2024/01/15 00:36:12;;;;;;;748.97;712.83;;;0.80;99.90;;;;;;5052262;28;20454;-63
2024/01/15 00:38:38;;;;;;;745.67;710.00;;;0.70;99.90;;;;;;5051785;28;20977;-63
2024/01/15 00:41:05;;;;;;;747.63;711.83;;;0.80;99.90;;;;;;5051832;28;20459;-62
2024/01/15 00:43:32;;;;;;;752.07;715.67;;;0.80;99.90;;;;;;5052087;28;20467;-63
2024/01/15 00:45:59;;;;;;;762.50;722.03;;;0.80;99.90;;;;;;5052104;28;20548;-63
2024/01/15 00:48:25;;;;;;;758.90;720.33;;;0.80;99.90;;;;;;5051792;28;20444;-62
2024/01/15 00:50:54;;;;;;;784.13;741.10;;;0.80;99.90;;;;;;5051874;28;20833;-63
2024/01/15 00:53:21;;;;;;;769.20;728.50;;;0.80;99.90;;;;;;5051695;28;20478;-64
2024/01/15 00:55:48;;;;;;;773.00;730.83;;;0.80;99.90;;;;;;5043918;28;20460;-63
2024/01/15 00:58:15;;;;;;;774.23;730.27;;;0.80;99.90;;;;;;5051862;28;20455;-63
2024/01/15 01:00:42;;;;;;;761.07;721.80;;;0.80;99.90;;;;;;5051913;28;20459;-63
2024/01/15 01:03:09;;;;;;;749.83;711.53;;;0.80;99.90;;;;;;5051761;28;20473;-64
2024/01/15 01:05:36;;;;;;;747.03;709.67;;;0.80;99.90;;;;;;5052733;28;20443;-63
2024/01/15 01:08:05;;;;;;;725.07;690.90;;;0.80;99.90;;;;;;5051524;28;20906;-63
2024/01/15 01:10:31;;;;;;;738.97;702.37;;;0.90;99.90;;;;;;5051801;28;20454;-63
2024/01/15 01:12:58;;;;;;;717.67;685.23;;;0.90;99.90;;;;;;5051677;28;20467;-64
2024/01/15 01:15:25;;;;;;;736.60;701.10;;;0.90;99.90;;;;;;5051807;28;20867;-63
2024/01/15 01:17:52;;;;;;;745.27;708.47;;;0.90;99.90;;;;;;5052144;28;20946;-64
2024/01/15 01:20:19;;;;;;;754.10;715.10;;;0.90;99.90;;;;;;5051566;28;20462;-64
2024/01/15 01:22:46;;;;;;;749.33;710.47;;;0.90;99.90;;;;;;5051387;28;20478;-64
2024/01/15 01:25:14;;;;;;;722.97;688.27;;;0.90;99.90;;;;;;5051841;28;20443;-65
2024/01/15 01:27:41;;;;;;;722.53;688.53;;;0.90;99.90;;;;;;5051362;28;20451;-63
2024/01/15 01:30:09;;;;;;;732.43;696.97;;;0.90;99.90;;;;;;5051576;28;20451;-64
2024/01/15 01:32:36;;;;;;;734.57;697.37;;;1.00;99.90;;;;;;5051423;28;20857;-64
2024/01/15 01:35:03;;;;;;;742.47;704.77;;;1.00;99.90;;;;;;5051461;28;20472;-63
2024/01/15 01:37:30;;;;;;;739.00;700.80;;;1.00;99.90;;;;;;5051217;28;20458;-63
2024/01/15 01:39:56;;;;;;;734.00;696.90;;;1.00;99.90;;;;;;5051741;28;20465;-62
2024/01/15 01:42:24;;;;;;;736.00;698.87;;;1.00;99.90;;;;;;5051443;28;20484;-63
2024/01/15 01:44:51;;;;;;;727.70;692.00;;;1.00;99.90;;;;;;5051689;28;20826;-62
2024/01/15 01:47:19;;;;;;;717.33;682.37;;;1.00;99.90;;;;;;5051357;28;20447;-63
2024/01/15 01:49:46;;;;;;;716.97;681.87;;;1.10;99.90;;;;;;5051275;28;20452;-63
2024/01/15 01:52:14;;;;;;;712.23;678.23;;;1.10;99.90;;;;;;5051130;28;20987;-63
2024/01/15 01:54:42;;;;;;;731.57;695.60;;;1.10;99.90;;;;;;5051965;28;21038;-64
2024/01/15 01:57:10;;;;;;;737.17;700.27;;;1.10;99.90;;;;;;5054253;28;20448;-63
2024/01/15 01:59:38;;;;;;;734.13;696.33;;;1.10;99.90;;;;;;5054450;28;20453;-64
2024/01/15 02:02:06;;;;;;;736.13;698.73;;;1.10;99.90;;;;;;5054576;28;20969;-64
2024/01/15 02:04:33;;;;;;;731.30;695.83;;;1.10;99.90;;;;;;5054685;28;20452;-64
2024/01/15 02:07:00;;;;;;;726.80;691.33;;;1.10;99.90;;;;;;5054710;28;20515;-65
2024/01/15 02:09:27;;;;;;;657.93;626.87;;;1.10;99.90;;;;;;5054634;28;20449;-64
2024/01/15 02:11:54;;;;;;;695.20;658.90;;;1.10;99.90;;;;;;5055626;28;20458;-63
2024/01/15 02:14:21;;;;;;;686.50;651.90;;;1.10;99.90;;;;;;5054634;28;20480;-64
2024/01/15 02:16:49;;;;;;;682.93;647.47;;;1.10;99.90;;;;;;5046550;28;20454;-63
2024/01/15 02:19:17;;;;;;;694.37;658.37;;;1.20;99.90;;;;;;5054343;28;20470;-64
2024/01/15 02:21:44;;;;;;;686.00;651.17;;;1.20;99.90;;;;;;5054737;28;20872;-63
2024/01/15 02:24:13;;;;;;;680.87;647.17;;;1.20;99.90;;;;;;5055637;28;20445;-65
2024/01/15 02:26:40;;;;;;;682.23;649.27;;;1.10;99.90;;;;;;5054144;28;20459;-65
2024/01/15 02:29:08;;;;;;;673.70;640.13;;;1.20;99.90;;;;;;5054280;28;20951;-67
2024/01/15 02:31:36;;;;;;;673.00;641.20;;;1.20;99.90;;;;;;5054083;28;20452;-65
2024/01/15 02:34:02;;;;;;;673.27;640.43;;;1.20;99.90;;;;;;5054191;28;21012;-65
2024/01/15 02:36:29;;;;;;;666.10;632.23;;;1.20;99.90;;;;;;5054165;28;20971;-65
2024/01/15 02:38:56;;;;;;;663.50;630.03;;;1.20;99.90;;;;;;5054009;28;20972;-66
2024/01/15 02:41:24;;;;;;;672.27;638.50;;;1.20;99.90;;;;;;5054168;28;20455;-66
2024/01/15 02:43:51;;;;;;;646.60;615.50;;;1.20;99.90;;;;;;5054133;28;20478;-65
2024/01/15 02:46:18;;;;;;;633.23;604.23;;;1.20;99.90;;;;;;5054306;28;20797;-65
2024/01/15 02:48:44;;;;;;;621.00;591.53;;;1.20;99.90;;;;;;5053858;28;20453;-65
2024/01/15 02:51:11;;;;;;;619.33;591.47;;;1.20;99.90;;;;;;5054346;28;20457;-64
2024/01/15 02:53:38;;;;;;;627.63;599.27;;;1.20;99.90;;;;;;5056749;28;20493;-66
2024/01/15 02:56:05;;;;;;;635.63;606.53;;;1.20;99.90;;;;;;5073442;28;20492;-64
2024/01/15 02:58:33;;;;;;;627.67;598.73;;;1.20;99.90;;;;;;5073298;28;20959;-67
2024/01/15 03:01:00;;;;;;;629.10;600.30;;;1.20;99.90;;;;;;5060127;28;20979;-67
2024/01/15 03:03:27;;;;;;;627.23;599.53;;;1.20;99.90;;;;;;5053521;28;20866;-66
2024/01/15 03:05:53;;;;;;;638.07;609.47;;;1.20;99.90;;;;;;5053974;28;20507;-64
2024/01/15 03:08:22;;;;;;;623.57;595.57;;;1.20;99.90;;;;;;5052457;28;20450;-64
2024/01/15 03:10:49;;;;;;;621.17;592.93;;;1.20;99.90;;;;;;5045559;28;20450;-66
2024/01/15 03:13:16;;;;;;;627.47;600.07;;;1.20;99.90;;;;;;5053805;28;20480;-65
2024/01/15 03:15:44;;;;;;;615.97;589.27;;;1.20;99.90;;;;;;5053686;28;20867;-65
2024/01/15 03:18:10;;;;;;;611.97;585.30;;;1.20;99.90;;;;;;5053533;28;20446;-65
2024/01/15 03:20:37;;;;;;;618.17;589.77;;;1.20;99.90;;;;;;5053461;28;20454;-66
2024/01/15 03:23:04;;;;;;;622.87;594.37;;;1.30;99.90;;;;;;5053303;28;20477;-65
2024/01/15 03:25:31;;;;;;;641.80;612.50;;;1.30;99.90;;;;;;5053400;28;20964;-65
2024/01/15 03:27:58;;;;;;;645.43;616.03;;;1.30;99.90;;;;;;5053268;28;20954;-66
2024/01/15 03:30:24;;;;;;;660.77;628.20;;;1.20;99.90;;;;;;5053430;28;20478;-65
2024/01/15 03:32:53;;;;;;;659.37;627.87;;;1.30;99.90;;;;;;5053507;28;20478;-65
2024/01/15 03:35:19;;;;;;;654.40;622.97;;;1.20;99.90;;;;;;5053322;28;20486;-66
2024/01/15 03:37:46;;;;;;;661.27;629.07;;;1.30;99.90;;;;;;5052820;28;20455;-67
2024/01/15 03:40:13;;;;;;;661.63;630.67;;;1.20;99.90;;;;;;5052751;28;20454;-67
2024/01/15 03:42:40;;;;;;;632.53;605.07;;;1.20;99.90;;;;;;5052794;28;20472;-67
2024/01/15 03:45:07;;;;;;;650.00;619.50;;;1.30;99.90;;;;;;5053119;28;20445;-66
2024/01/15 03:47:34;;;;;;;652.33;620.63;;;1.30;99.90;;;;;;5052648;28;20456;-66
2024/01/15 03:50:02;;;;;;;637.50;609.53;;;1.30;99.90;;;;;;5052803;28;20449;-66
2024/01/15 03:52:30;;;;;;;666.23;634.33;;;1.30;99.90;;;;;;5052529;28;20848;-66
2024/01/15 03:54:57;;;;;;;650.00;619.83;;;1.20;99.90;;;;;;5052587;28;20476;-66
2024/01/15 03:57:24;;;;;;;652.00;621.77;;;1.30;99.90;;;;;;5052454;28;20456;-67
2024/01/15 03:59:50;;;;;;;658.30;628.43;;;1.30;99.90;;;;;;5052585;28;20450;-65
2024/01/15 04:02:17;;;;;;;656.03;626.87;;;1.30;99.90;;;;;;5052505;28;20992;-67
2024/01/15 04:04:44;;;;;;;663.50;633.37;;;1.20;99.90;;;;;;5052591;28;20979;-67
2024/01/15 04:07:12;;;;;;;648.03;618.37;;;1.20;99.90;;;;;;5052714;28;20449;-66
2024/01/15 04:09:39;;;;;;;659.73;628.87;;;1.20;99.90;;;;;;5052453;28;20454;-66
2024/01/15 04:12:06;;;;;;;647.70;618.13;;;1.20;99.90;;;;;;5052583;28;20470;-66
2024/01/15 04:14:33;;;;;;;636.37;607.90;;;1.30;99.90;;;;;;5052394;28;20453;-66
2024/01/15 04:16:59;;;;;;;641.20;611.43;;;1.20;99.90;;;;;;5052226;28;20451;-67
2024/01/15 04:19:26;;;;;;;641.83;611.57;;;1.30;99.90;;;;;;5052076;28;20454;-67
2024/01/15 04:21:53;;;;;;;625.40;597.00;;;1.30;99.90;;;;;;5052496;28;20454;-65
2024/01/15 04:24:21;;;;;;;632.30;603.70;;;1.30;99.90;;;;;;5052773;28;20449;-66
2024/01/15 04:26:48;;;;;;;632.97;604.40;;;1.30;99.90;;;;;;5043954;28;20448;-66
2024/01/15 04:29:15;;;;;;;656.60;625.40;;;1.30;99.90;;;;;;5052202;28;20459;-66
2024/01/15 04:31:42;;;;;;;654.13;623.57;;;1.20;99.90;;;;;;5051000;28;20450;-66
2024/01/15 04:34:08;;;;;;;651.30;621.57;;;1.30;99.90;;;;;;5052314;28;20478;-68
2024/01/15 04:36:40;;;;;;;648.50;618.23;;;1.30;99.90;;;;;;5051776;28;20485;-66
2024/01/15 04:39:07;;;;;;;638.40;608.53;;;1.30;99.90;;;;;;5052216;28;20459;-67
2024/01/15 04:41:35;;;;;;;637.07;607.47;;;1.40;99.90;;;;;;5052245;28;20497;-66
2024/01/15 04:44:02;;;;;;;633.43;603.70;;;1.40;99.90;;;;;;5052040;28;20836;-66
2024/01/15 04:46:29;;;;;;;624.83;596.77;;;1.40;99.90;;;;;;5052149;28;20861;-66
2024/01/15 04:48:55;;;;;;;659.20;627.70;;;1.30;99.90;;;;;;5051676;28;20450;-67
2024/01/15 04:51:22;;;;;;;643.73;615.47;;;1.30;99.90;;;;;;5051587;28;20943;-68
2024/01/15 04:53:49;;;;;;;639.97;611.47;;;1.30;99.90;;;;;;5052692;28;20491;-66
2024/01/15 04:56:16;;;;;;;638.97;612.27;;;1.20;99.90;;;;;;5052009;28;20483;-67
2024/01/15 04:58:44;;;;;;;654.60;626.30;;;1.20;99.90;;;;;;5051733;28;20548;-66
2024/01/15 05:01:11;;;;;;;640.73;612.93;;;1.10;99.90;;;;;;5058616;28;20454;-65
2024/01/15 05:03:39;;;;;;;634.87;606.37;;;1.20;99.90;;;;;;5060890;28;20568;-67
2024/01/15 05:06:06;;;;;;;627.90;600.00;;;1.30;99.90;;;;;;5052008;28;20801;-64
2024/01/15 05:08:32;;;;;;;594.77;569.67;;;1.30;99.90;;;;;;5051425;28;20459;-65
2024/01/15 05:10:59;;;;;;;604.43;578.50;;;1.40;99.90;;;;;;5051791;28;20453;-65
2024/01/15 05:13:26;;;;;;;609.07;583.17;;;1.40;99.90;;;;;;5051613;28;20473;-66
2024/01/15 05:15:54;;;;;;;607.17;581.00;;;1.30;99.90;;;;;;5052364;28;20473;-65
2024/01/15 05:18:21;;;;;;;647.43;618.90;;;1.30;99.90;;;;;;5052352;28;20463;-67
2024/01/15 05:20:48;;;;;;;666.83;637.33;;;1.20;99.90;;;;;;5045111;28;20838;-66
2024/01/15 05:23:15;;;;;;;682.93;651.67;;;1.20;99.90;;;;;;5052010;28;20472;-66
2024/01/15 05:25:42;;;;;;;687.97;655.37;;;1.20;99.90;;;;;;5051254;28;20504;-67
2024/01/15 05:28:09;;;;;;;689.43;657.83;;;1.20;99.90;;;;;;5051540;28;20456;-67
2024/01/15 05:30:35;;;;;;;678.63;647.07;;;1.20;99.90;;;;;;5052003;28;20450;-65
2024/01/15 05:33:04;;;;;;;681.63;650.23;;;1.20;99.90;;;;;;5055280;28;20841;-66
2024/01/15 05:35:31;;;;;;;681.33;650.03;;;1.20;99.90;;;;;;5055215;28;21112;-66
2024/01/15 05:37:58;;;;;;;687.23;654.37;;;1.10;99.90;;;;;;5055472;28;20479;-65
2024/01/15 05:40:25;;;;;;;692.63;659.30;;;1.10;99.90;;;;;;5055211;28;20458;-66
2024/01/15 05:42:52;;;;;;;684.37;650.83;;;1.20;99.90;;;;;;5055523;28;20480;-66
2024/01/15 05:45:18;;;;;;;667.27;636.87;;;1.20;99.90;;;;;;5054970;28;20833;-66
2024/01/15 05:47:45;;;;;;;664.43;634.93;;;1.20;99.90;;;;;;5056930;28;20448;-66
2024/01/15 05:50:12;;;;;;;665.43;635.63;;;1.30;99.90;;;;;;5055561;28;20453;-66
2024/01/15 05:52:39;;;;;;;651.17;622.77;;;1.30;99.90;;;;;;5055075;28;20553;-66
2024/01/15 05:55:06;;;;;;;651.87;622.87;;;1.30;99.90;;;;;;5055653;28;20455;-66
2024/01/15 05:57:33;;;;;;;654.13;625.13;;;1.30;99.90;;;;;;5055382;28;20449;-65
2024/01/15 06:00:01;;;;;;;674.40;645.03;;;1.40;99.90;;;;;;5055280;28;20456;-66
2024/01/15 06:02:27;;;;;;;655.90;627.97;;;1.30;99.90;;;;;;5054856;28;20477;-66
2024/01/15 06:04:54;;;;;;;649.03;621.30;;;1.40;99.90;;;;;;5056011;28;20458;-66
2024/01/15 06:07:23;;;;;;;641.97;613.77;;;1.40;99.90;;;;;;5055090;28;20445;-66
2024/01/15 06:09:50;;;;;;;633.07;606.00;;;1.40;99.90;;;;;;5047181;28;20895;-66
2024/01/15 06:12:17;;;;;;;620.23;593.07;;;1.40;99.90;;;;;;5055574;28;20932;-66
2024/01/15 06:14:44;;;;;;;619.37;591.57;;;1.40;99.90;;;;;;5063731;28;20453;-66
2024/01/15 06:17:10;;;;;;;634.27;604.70;;;1.40;99.90;;;;;;5054760;28;20490;-66
2024/01/15 06:19:37;;;;;;;638.63;610.63;;;1.40;99.90;;;;;;5054646;28;20457;-66
2024/01/15 06:22:04;;;;;;;611.90;586.00;;;1.40;99.90;;;;;;5054651;28;20469;-66
2024/01/15 06:24:33;;;;;;;602.90;576.57;;;1.40;99.90;;;;;;5054473;28;20872;-66
2024/01/15 06:27:00;;;;;;;600.97;575.17;;;1.40;99.90;;;;;;5054096;28;20459;-66
2024/01/15 06:29:27;;;;;;;637.13;609.27;;;1.40;99.90;;;;;;5054349;28;20953;-66
2024/01/15 06:31:54;;;;;;;658.60;629.67;;;1.40;99.90;;;;;;5054512;28;20479;-65
2024/01/15 06:34:21;;;;;;;657.83;628.83;;;1.30;99.90;;;;;;5054560;28;20455;-65
2024/01/15 06:36:48;;;;;;;685.70;653.80;;;1.30;99.90;;;;;;5054209;28;20476;-66
2024/01/15 06:39:14;;;;;;;693.87;660.30;;;1.30;99.90;;;;;;5055097;28;20620;-65
2024/01/15 06:41:52;;;;;;;675.27;643.97;;;1.30;99.90;;;;;;5053986;28;20452;-66
2024/01/15 06:44:21;;;;;;;674.73;643.27;;;1.40;99.90;;;;;;5054079;28;20965;-65
2024/01/15 06:46:48;;;;;;;691.53;657.37;;;1.40;99.90;;;;;;5054766;28;20895;-66
2024/01/15 06:49:15;;;;;;;696.43;662.77;;;1.40;99.90;;;;;;5053980;28;20443;-66
2024/01/15 06:51:42;;;;;;;701.47;667.87;;;1.30;99.90;;;;;;5053933;28;20499;-66
2024/01/15 06:54:09;;;;;;;680.90;649.03;;;1.40;99.90;;;;;;5053741;28;20507;-66
2024/01/15 06:56:36;;;;;;;675.33;643.57;;;1.40;99.90;;;;;;5054701;28;20485;-66
2024/01/15 06:59:05;;;;;;;668.93;636.80;;;1.40;99.90;;;;;;5053578;28;20453;-65
2024/01/15 07:01:32;;;;;;;669.73;637.60;;;1.40;99.90;;;;;;5055148;28;20462;-66
2024/01/15 07:03:59;;;;;;;645.90;617.30;;;1.40;99.90;;;;;;5060473;28;20894;-65
2024/01/15 07:06:25;;;;;;;630.67;603.30;;;1.40;99.90;;;;;;5055064;28;20453;-64
2024/01/15 07:08:52;;;;;;;640.83;611.60;;;1.50;99.90;;;;;;5053366;28;20447;-66
2024/01/15 07:11:19;;;;;;;623.37;596.10;;;1.50;99.90;;;;;;5053666;28;20459;-66
2024/01/15 07:13:46;;;;;;;623.83;595.97;;;1.50;99.90;;;;;;5053640;28;20474;-66
2024/01/15 07:16:14;;;;;;;635.63;606.80;;;1.50;99.90;;;;;;5053716;28;20472;-65
2024/01/15 07:18:41;;;;;;;641.03;612.27;;;1.50;99.90;;;;;;5053200;28;20452;-66
2024/01/15 07:21:07;;;;;;;636.03;607.33;;;1.40;99.90;;;;;;5053169;28;20523;-67
2024/01/15 07:23:34;;;;;;;615.10;588.00;;;1.40;99.90;;;;;;5053554;28;21029;-65
2024/01/15 07:26:01;;;;;;;617.30;590.30;;;1.50;99.90;;;;;;5053232;28;20454;-66
2024/01/15 07:28:30;;;;;;;610.87;584.17;;;1.40;99.90;;;;;;5052390;28;20503;-66
2024/01/15 07:30:57;;;;;;;603.77;577.97;;;1.40;99.90;;;;;;5052089;28;20454;-65
2024/01/15 07:33:26;;;;;;;596.27;570.03;;;1.50;99.90;;;;;;5053938;28;20505;-66
2024/01/15 07:35:52;;;;;;;598.73;573.23;;;1.50;99.90;;;;;;5053255;28;20478;-66
2024/01/15 07:38:25;;;;;;;591.87;565.57;;;1.50;99.90;;;;;;5052855;28;20450;-65
2024/01/15 07:40:53;;;;;;;572.97;547.37;;;1.50;99.90;;;;;;5053556;28;20460;-67
2024/01/15 07:43:20;;;;;;;570.57;546.43;;;1.50;99.90;;;;;;5053011;28;20471;-66
2024/01/15 07:45:47;;;;;;;571.17;546.37;;;1.50;99.90;;;;;;5061492;28;20454;-67
2024/01/15 07:48:14;;;;;;;557.33;532.63;;;1.50;99.90;;;;;;5052364;28;20450;-65
2024/01/15 07:50:42;;;;;;;547.83;524.57;;;1.60;99.90;;;;;;5060504;28;20563;-66
2024/01/15 07:53:08;;;;;;;533.90;511.67;;;1.60;99.90;;;;;;5051794;28;20488;-67
2024/01/15 07:55:35;;;;;;;540.47;517.40;;;1.60;99.90;;;;;;5052342;28;20458;-67
2024/01/15 07:58:03;;;;;;;544.47;520.63;;;1.60;99.90;;;;;;5052405;28;20467;-66
2024/01/15 08:00:29;;;;;;;539.33;515.83;;;1.60;99.90;;;;;;5052552;28;20450;-66
2024/01/15 08:02:56;;;;;;;530.83;508.50;;;1.70;99.90;;;;;;5053171;28;20545;-67
2024/01/15 08:05:23;;;;;;;522.80;501.53;;;1.70;99.90;;;;;;5053350;28;20476;-66
2024/01/15 08:07:51;;;;;;;510.70;489.50;;;1.70;99.90;;;;;;5052702;28;20453;-67
2024/01/15 08:10:18;;;;;;;466.70;448.20;;;1.70;99.90;;;;;;5052935;28;20446;-67
2024/01/15 08:12:45;;;;;;;503.20;481.50;;;1.70;99.90;;;;;;5055297;28;20951;-66
2024/01/15 08:15:12;;;;;;;503.10;481.73;;;1.70;99.90;;;;;;5066270;28;20456;-66
2024/01/15 08:17:38;;;;;;;507.77;486.67;;;1.70;99.90;;;;;;5053141;28;20481;-66
2024/01/15 08:20:06;;;;;;;534.77;513.53;;;1.70;99.90;;;;;;5058274;28;20449;-67
2024/01/15 08:22:33;;;;;;;564.93;541.47;;;1.60;99.90;;;;;;5052425;28;20537;-66
2024/01/15 08:25:01;;;;;;;609.83;584.87;;;1.50;99.90;;;;;;5052492;28;20456;-65
2024/01/15 08:27:28;;;;;;;672.70;642.17;;;1.40;99.90;;;;;;5052147;28;20932;-66
2024/01/15 08:29:55;;;;;;;693.27;660.27;;;1.30;99.90;;;;;;5064647;28;20459;-66
2024/01/15 08:32:22;;;;;;;691.23;658.70;;;1.30;99.90;;;;;;5055864;28;20470;-65
2024/01/15 08:34:52;;;;;;;659.50;630.77;;;1.30;99.90;;;;;;5044272;28;20454;-65
2024/01/15 08:37:18;;;;;;;667.67;637.07;;;1.30;99.90;;;;;;5052144;28;20483;-65
2024/01/15 08:39:45;;;;;;;651.53;622.77;;;1.30;99.90;;;;;;5052216;28;20454;-65
2024/01/15 08:42:13;;;;;;;656.00;626.60;;;1.40;99.90;;;;;;5052118;28;20470;-66
2024/01/15 08:44:43;;;;;;;678.10;647.03;;;1.40;99.90;;;;;;5051719;28;20453;-66
2024/01/15 08:47:09;;;;;;;682.93;651.57;;;1.30;99.90;;;;;;5054286;28;20834;-65
2024/01/15 08:49:36;;;;;;;705.10;671.70;;;1.30;99.90;;;;;;5060253;28;20463;-66
2024/01/15 08:52:03;;;;;;;707.97;673.50;;;1.30;99.90;;;;;;5051529;28;20554;-65
2024/01/15 08:54:30;;;;;;;717.77;682.03;;;1.30;99.90;;;;;;5051394;28;20472;-65
2024/01/15 08:56:57;;;;;;;723.20;685.80;;;1.30;99.90;;;;;;5051812;28;20485;-65
2024/01/15 08:59:25;;;;;;;713.23;677.43;;;1.30;99.90;;;;;;5060213;28;20885;-65
2024/01/15 09:01:52;;;;;;;716.90;682.03;;;1.40;99.90;;;;;;5051734;28;20455;-65
2024/01/15 09:04:19;;;;;;;706.30;672.13;;;1.40;99.90;;;;;;5050523;28;20833;-65
2024/01/15 09:06:46;;;;;;;704.00;669.60;;;1.40;99.90;;;;;;5053931;28;20446;-65
2024/01/15 09:09:14;;;;;;;722.03;685.67;;;1.40;99.90;;;;;;5056413;28;21217;-65
2024/01/15 09:11:41;;;;;;;718.20;682.10;;;1.40;99.90;;;;;;5055260;28;20463;-65
2024/01/15 09:14:09;;;;;;;714.80;679.37;;;1.40;99.90;;;;;;5055432;28;20465;-65
2024/01/15 09:16:37;;;;;;;715.40;679.73;;;1.50;99.90;;;;;;5055461;28;20485;-65
2024/01/15 09:19:04;;;;;;;725.60;689.20;;;1.40;99.90;;;;;;5053740;28;20962;-65
2024/01/15 09:21:31;;;;;;;759.07;718.57;;;1.40;99.90;;;;;;5053887;28;20453;-64
2024/01/15 09:23:58;;;;;;;788.10;741.83;;;1.30;99.90;;;;;;5054284;28;20836;-65
2024/01/15 09:26:25;;;;;;;776.10;732.40;;;1.30;99.90;;;;;;5054741;28;21004;-64
2024/01/15 09:28:52;;;;;;;751.47;708.67;;;1.40;99.90;;;;;;5070038;28;20479;-65
2024/01/15 09:31:19;;;;;;;761.77;717.67;;;1.30;99.90;;;;;;5054182;28;20454;-65
2024/01/15 09:33:48;;;;;;;774.37;728.47;;;1.30;99.90;;;;;;5054899;28;21017;-65
2024/01/15 09:36:15;;;;;;;765.53;719.67;;;1.30;99.90;;;;;;5063265;28;20458;-65
2024/01/15 09:38:42;;;;;;;765.83;720.73;;;1.40;99.90;;;;;;5065558;28;20454;-65
2024/01/15 09:41:09;;;;;;;768.87;723.70;;;1.40;99.90;;;;;;5060677;28;20453;-65
2024/01/15 09:43:37;;;;;;;793.67;745.97;;;1.40;99.90;;;;;;5057263;28;20465;-65
2024/01/15 09:46:05;;;;;;;788.53;740.87;;;1.40;99.90;;;;;;5061176;28;20448;-65
2024/01/15 09:48:33;;;;;;;789.80;738.73;;;1.40;99.90;;;;;;5072566;28;20448;-65
2024/01/15 09:51:02;;;;;;;819.23;764.00;;;1.50;99.90;;;;;;5059674;28;20499;-65
2024/01/15 09:53:29;;;;;;;813.23;761.27;;;1.60;99.90;;;;;;5055593;28;20562;-64
2024/01/15 09:55:56;;;;;;;814.00;761.27;;;1.60;99.90;;;;;;5074729;28;20957;-64
2024/01/15 09:58:24;;;;;;;815.20;762.70;;;1.60;99.90;;;;;;5074652;28;20489;-65
2024/01/15 10:00:52;;;;;;;845.63;790.93;;;1.50;99.90;;;;;;5075335;28;20480;-65
2024/01/15 10:03:21;;;;;;;874.00;817.07;;;1.50;99.90;;;;;;5067017;28;20938;-65
2024/01/15 10:05:50;;;;;;;847.90;792.80;;;1.40;99.90;;;;;;5066246;28;20835;-65
2024/01/15 10:08:19;;;;;;;834.53;779.17;;;1.40;99.90;;;;;;5074712;28;20465;-64
2024/01/15 10:10:46;;;;;;;813.70;760.00;;;1.40;99.90;;;;;;5074751;28;20463;-65
2024/01/15 10:13:14;;;;;;;819.13;764.37;;;1.40;99.90;;;;;;5059400;28;20972;-65
2024/01/15 10:15:42;;;;;;;808.57;755.37;;;1.50;99.90;;;;;;5057295;28;20552;-64
2024/01/15 10:18:09;;;;;;;808.67;754.97;;;1.50;99.90;;;;;;5067277;28;20540;-63
2024/01/15 10:20:36;;;;;;;800.40;748.07;;;1.50;99.90;;;;;;5064352;28;20488;-64
2024/01/15 10:23:04;;;;;;;800.00;747.30;;;1.50;99.90;;;;;;5074379;28;20471;-64
2024/01/15 10:25:32;;;;;;;796.70;745.17;;;1.50;99.90;;;;;;5065002;28;21011;-65
2024/01/15 10:28:02;;;;;;;805.67;753.33;;;1.50;99.90;;;;;;5067690;28;20446;-65
2024/01/15 10:30:29;;;;;;;815.30;760.35;;;1.40;99.90;;;;;;5072889;28;20953;-65
2024/01/15 10:33:01;;;;;;;823.27;767.67;;;1.30;99.90;;;;;;5058641;28;20220;-64
2024/01/15 10:35:29;;;;;;;836.27;778.87;;;1.20;99.90;;;;;;5074353;28;20468;-65
2024/01/15 10:37:56;;;;;;;842.43;785.90;;;1.20;99.90;;;;;;5074096;28;20494;-66
2024/01/15 10:40:23;;;;;;;860.63;802.57;;;1.20;99.90;;;;;;5065816;28;20453;-66
2024/01/15 10:42:52;;;;;;;874.83;815.53;;;1.20;99.90;;;;;;5062441;28;20482;-66
2024/01/15 10:45:19;;;;;;;858.37;799.93;;;1.20;99.90;;;;;;5061546;28;20458;-66
2024/01/15 10:47:45;;;;;;;855.07;794.47;;;1.30;99.90;;;;;;5057347;28;20506;-66
2024/01/15 10:50:13;;;;;;;834.20;777.77;;;1.40;99.90;;;;;;5058787;28;20459;-66
2024/01/15 10:52:41;;;;;;;817.70;761.67;;;1.40;99.90;;;;;;5073019;28;20485;-65
2024/01/15 10:55:10;;;;;;;805.40;751.33;;;1.50;99.90;;;;;;5074016;28;20466;-66
2024/01/15 10:57:37;;;;;;;796.10;743.40;;;1.60;99.90;;;;;;5073673;28;20857;-66
2024/01/15 11:00:07;;;;;;;805.23;751.50;;;1.70;99.90;;;;;;5068025;28;20454;-65
2024/01/15 11:02:35;;;;;;;794.10;741.87;;;1.90;99.90;;;;;;5062034;28;20863;-65
2024/01/15 11:05:02;;;;;;;783.90;733.30;;;2.00;99.90;;;;;;5059347;28;20845;-65
2024/01/15 11:07:31;;;;;;;778.77;729.43;;;2.10;99.90;;;;;;5073365;28;20448;-66
2024/01/15 11:09:58;;;;;;;779.57;729.73;;;2.20;99.90;;;;;;5060502;28;20465;-66
2024/01/15 11:12:25;;;;;;;781.73;734.50;;;2.30;99.90;;;;;;5061591;28;20997;-66
2024/01/15 11:14:54;;;;;;;789.23;742.90;;;2.30;99.90;;;;;;5065984;28;20454;-66
2024/01/15 11:17:22;;;;;;;803.50;756.73;;;2.30;99.90;;;;;;5065138;28;21043;-66
2024/01/15 11:19:51;;;;;;;811.33;763.40;;;2.30;99.90;;;;;;5045536;28;20461;-66
2024/01/15 11:22:49;;;;;;;813.47;765.13;;;2.20;99.90;;;;;;5069503;28;21000;-66
2024/01/15 11:25:19;;;;;;;801.20;757.97;;;2.20;99.90;;;;;;5066236;28;20466;-66
2024/01/15 11:27:51;;;;;;;809.37;765.33;;;2.20;99.90;;;;;;5052677;28;20551;-66
2024/01/15 11:30:19;;;;;;;776.22;739.42;;;2.10;99.90;;;;;;5053002;28;20513;-66
2024/01/15 11:32:48;;;;;;;725.17;694.63;;;2.20;99.90;;;;;;5068500;28;20452;-67
2024/01/15 11:35:16;;;;;;;760.03;724.93;;;2.20;99.90;;;;;;5059929;28;20203;-65
2024/01/15 11:37:59;;;;;;;749.67;716.47;;;2.10;99.90;;;;;;5056583;28;20594;-65
2024/01/15 11:40:39;;;;;;;746.50;714.30;;;2.00;99.90;;;;;;5056604;28;20895;-66
2024/01/15 11:43:06;;;;;;;775.17;739.40;;;1.90;99.90;;;;;;5072672;28;20980;-67
2024/01/15 11:45:34;;;;;;;760.83;727.73;;;1.80;99.90;;;;;;5072679;28;20462;-65
2024/01/15 11:48:17;;;;;;;775.13;740.43;;;1.80;99.90;;;;;;5067662;28;20458;-67
2024/01/15 11:50:45;;;;;;;773.67;738.33;;;1.80;99.90;;;;;;5060974;28;20449;-66
2024/01/15 11:53:18;;;;;;;774.50;738.37;;;1.90;99.90;;;;;;5059607;28;20692;-66
2024/01/15 11:55:48;;;;;;;702.30;674.30;;;2.40;99.90;;;;;;5056166;28;20442;-67
2024/01/15 11:58:16;;;;;;;742.40;708.30;;;2.90;99.90;;;;;;5055691;28;20479;-67
2024/01/15 12:00:45;;;;;;;700.93;670.27;;;3.20;99.90;;;;;;5068788;28;20450;-67
2024/01/15 12:03:11;;;;;;;365.00;352.10;;;3.40;99.90;;;;;;5058978;28;20470;-66
2024/01/15 12:05:41;;;;;;;189.53;181.63;;;3.50;99.90;;;;;;5072654;28;20482;-66
2024/01/15 12:08:10;;;;;;;170.80;163.57;;;3.70;99.90;;;;;;5072096;28;20454;-67
2024/01/15 12:10:40;;;;;;;97.40;92.20;;;3.70;99.90;;;;;;5072037;28;20544;-67
2024/01/15 12:13:11;;;;;;;80.27;75.73;;;3.50;99.90;;;;;;5072462;28;20481;-66
2024/01/15 12:15:40;;;;;;;73.23;69.33;;;3.30;99.90;;;;;;5055867;28;20448;-67
2024/01/15 12:18:09;;;;;;;75.83;71.20;;;3.10;99.90;;;;;;5071955;28;20844;-66
2024/01/15 12:20:36;;;;;;;64.33;60.43;;;2.90;99.90;;;;;;5072023;28;20536;-67